createdAt,value
2023-01-08T00:00:49.492Z,2.16
2023-01-08T00:03:51.960Z,2.09
2023-01-08T00:06:54.214Z,2.00
2023-01-08T00:09:56.510Z,1.99
2023-01-08T00:12:58.758Z,2.17
2023-01-08T00:16:05.528Z,2.10
2023-01-08T00:19:07.830Z,2.05
2023-01-08T00:22:10.328Z,1.93
2023-01-08T00:25:12.512Z,1.90
2023-01-08T00:28:15.232Z,1.93
2023-01-08T00:31:17.449Z,1.81
2023-01-08T00:34:19.703Z,1.68
2023-01-08T00:37:22.043Z,1.68
2023-01-08T00:40:24.324Z,1.82
2023-01-08T00:43:26.575Z,2.00
2023-01-08T00:46:28.823Z,1.99
2023-01-08T00:49:31.045Z,2.13
2023-01-08T00:52:33.248Z,1.87
2023-01-08T00:55:35.448Z,1.82
2023-01-08T00:58:37.977Z,1.66
2023-01-08T01:01:40.307Z,1.63
2023-01-08T01:04:42.657Z,1.44
2023-01-08T01:07:45.362Z,1.44
2023-01-08T01:10:47.603Z,1.34
2023-01-08T01:13:50.553Z,1.49
2023-01-08T01:16:52.895Z,1.44
2023-01-08T01:19:55.132Z,1.61
2023-01-08T01:22:57.373Z,1.59
2023-01-08T01:25:59.620Z,1.59
2023-01-08T01:29:02.078Z,1.63
2023-01-08T01:32:04.800Z,1.54
2023-01-08T01:35:07.449Z,1.49
2023-01-08T01:38:09.653Z,1.35
2023-01-08T01:41:38.336Z,1.37
2023-01-08T01:44:45.717Z,1.24
2023-01-08T01:47:54.134Z,1.28
2023-01-08T01:51:02.820Z,1.40
2023-01-08T01:54:09.399Z,1.51
2023-01-08T01:57:17.750Z,1.62
2023-01-08T02:00:22.098Z,1.75
2023-01-08T02:03:27.744Z,1.56
2023-01-08T02:06:53.750Z,1.58
2023-01-08T02:10:03.596Z,1.52
2023-01-08T02:13:13.798Z,1.69
2023-01-08T02:16:19.117Z,1.48
2023-01-08T02:19:45.075Z,1.56
2023-01-08T02:23:31.593Z,1.52
2023-01-08T02:26:35.921Z,1.54
2023-01-08T02:29:38.598Z,1.63
2023-01-08T02:32:42.247Z,1.65
2023-01-08T02:36:14.758Z,1.56
2023-01-08T02:39:41.934Z,1.52
2023-01-08T02:43:15.121Z,1.44
2023-01-08T02:46:22.343Z,1.37
2023-01-08T02:49:30.425Z,1.42
2023-01-08T02:52:36.756Z,1.45
2023-01-08T02:55:43.102Z,1.38
2023-01-08T02:58:48.059Z,1.38
2023-01-08T03:01:50.608Z,1.31
2023-01-08T03:04:58.079Z,1.38
2023-01-08T03:08:00.785Z,1.31
2023-01-08T03:11:06.229Z,1.31
2023-01-08T03:14:25.439Z,1.37
2023-01-08T03:17:35.941Z,1.31
2023-01-08T03:20:38.953Z,1.35
2023-01-08T03:23:43.033Z,1.42
2023-01-08T03:26:49.174Z,1.26
2023-01-08T03:29:54.185Z,1.27
2023-01-08T03:32:59.965Z,1.34
2023-01-08T03:36:05.227Z,1.35
2023-01-08T03:39:21.680Z,1.10
2023-01-08T03:42:25.594Z,1.05
2023-01-08T03:45:30.355Z,1.17
2023-01-08T03:48:35.390Z,1.21
2023-01-08T03:51:42.396Z,1.27
2023-01-08T03:54:44.601Z,1.16
2023-01-08T03:57:46.880Z,1.11
2023-01-08T04:00:49.120Z,1.13
2023-01-08T04:03:51.341Z,1.21
2023-01-08T04:06:53.735Z,1.34
2023-01-08T04:09:55.938Z,1.44
2023-01-08T04:12:58.235Z,1.27
2023-01-08T04:16:00.534Z,1.32
2023-01-08T04:19:02.873Z,1.34
2023-01-08T04:22:05.108Z,1.30
2023-01-08T04:25:07.752Z,1.45
2023-01-08T04:28:09.945Z,1.31
2023-01-08T04:31:12.354Z,1.31
2023-01-08T04:34:14.676Z,1.16
2023-01-08T04:37:17.008Z,1.17
2023-01-08T04:40:19.275Z,1.30
2023-01-08T04:43:21.507Z,1.16
2023-01-08T04:46:23.866Z,1.31
2023-01-08T04:49:26.154Z,1.23
2023-01-08T04:52:29.309Z,1.38
2023-01-08T04:55:31.572Z,1.30
2023-01-08T04:58:34.783Z,1.30
2023-01-08T05:01:37.117Z,1.40
2023-01-08T05:04:39.363Z,1.41
2023-01-08T05:07:42.568Z,1.27
2023-01-08T05:10:44.790Z,1.20
2023-01-08T05:13:51.640Z,1.21
2023-01-08T05:16:53.874Z,1.14
2023-01-08T05:19:56.145Z,1.17
2023-01-08T05:22:58.678Z,1.24
2023-01-08T05:26:02.906Z,1.10
2023-01-08T05:29:05.119Z,1.20
2023-01-08T05:32:15.281Z,1.24
2023-01-08T05:35:18.433Z,1.26
2023-01-08T05:38:21.584Z,1.27
2023-01-08T05:41:23.861Z,1.24
2023-01-08T05:44:26.091Z,1.44
2023-01-08T05:47:33.024Z,1.47
2023-01-08T05:50:35.674Z,1.47
2023-01-08T05:53:37.927Z,1.55
2023-01-08T05:56:41.177Z,1.63
2023-01-08T05:59:43.439Z,1.62
2023-01-08T06:02:49.356Z,1.61
2023-01-08T06:05:51.601Z,1.61
2023-01-08T06:08:54.054Z,1.68
2023-01-08T06:11:58.996Z,1.69
2023-01-08T06:15:01.321Z,1.69
2023-01-08T06:18:04.448Z,1.79
2023-01-08T06:21:06.989Z,1.82
2023-01-08T06:24:09.302Z,1.87
2023-01-08T06:27:11.671Z,1.98
2023-01-08T06:30:14.908Z,1.96
2023-01-08T06:33:21.175Z,2.06
2023-01-08T06:36:23.889Z,2.17
2023-01-08T06:39:26.238Z,2.22
2023-01-08T06:42:28.499Z,2.36
2023-01-08T06:45:30.795Z,2.37
2023-01-08T06:48:33.100Z,2.60
2023-01-08T06:51:35.763Z,2.89
2023-01-08T06:54:39.836Z,3.22
2023-01-08T06:57:42.123Z,3.33
2023-01-08T07:00:44.353Z,3.73
2023-01-08T07:03:46.759Z,4.09
2023-01-08T07:06:49.075Z,4.19
2023-01-08T07:09:51.338Z,4.42
2023-01-08T07:12:53.565Z,4.45
2023-01-08T07:15:56.310Z,4.59
2023-01-08T07:18:58.779Z,4.66
2023-01-08T07:22:01.088Z,4.87
2023-01-08T07:25:05.154Z,4.83
2023-01-08T07:28:15.580Z,5.26
2023-01-08T07:31:17.849Z,5.86
2023-01-08T07:34:20.074Z,5.92
2023-01-08T07:37:22.257Z,6.20
2023-01-08T07:40:24.564Z,6.77
2023-01-08T07:43:27.746Z,7.56
2023-01-08T07:46:30.084Z,7.64
2023-01-08T07:49:32.275Z,8.02
2023-01-08T07:52:36.613Z,8.44
2023-01-08T07:55:38.936Z,8.56
2023-01-08T07:58:41.249Z,8.97
2023-01-08T08:01:43.508Z,9.31
2023-01-08T08:04:45.839Z,9.55
2023-01-08T08:07:48.074Z,10.54
2023-01-08T08:10:50.360Z,9.93
2023-01-08T08:13:54.189Z,9.20
2023-01-08T08:16:59.680Z,8.55
2023-01-08T08:20:02.143Z,8.49
2023-01-08T08:23:06.906Z,9.11
2023-01-08T08:26:09.190Z,9.99
2023-01-08T08:29:11.459Z,10.32
2023-01-08T08:32:13.702Z,10.23
2023-01-08T08:35:16.244Z,10.12
2023-01-08T08:38:18.560Z,8.45
2023-01-08T08:41:20.796Z,9.89
2023-01-08T08:44:23.086Z,10.81
2023-01-08T08:47:25.409Z,10.72
2023-01-08T08:50:27.807Z,11.23
2023-01-08T08:53:30.106Z,11.56
2023-01-08T08:56:32.381Z,12.52
2023-01-08T08:59:34.740Z,12.81
2023-01-08T09:02:37.234Z,12.10
2023-01-08T09:05:39.652Z,12.92
2023-01-08T09:08:41.913Z,12.85
2023-01-08T09:11:47.160Z,12.81
2023-01-08T09:14:50.350Z,12.05
2023-01-08T09:17:54.657Z,11.73
2023-01-08T09:20:56.840Z,11.16
2023-01-08T09:23:59.058Z,11.36
2023-01-08T09:27:01.355Z,12.13
2023-01-08T09:30:03.987Z,12.27
2023-01-08T09:33:07.492Z,12.99
2023-01-08T09:36:12.746Z,12.89
2023-01-08T09:39:14.988Z,12.64
2023-01-08T09:42:22.259Z,11.08
2023-01-08T09:45:32.655Z,10.95
2023-01-08T09:48:37.164Z,10.80
2023-01-08T09:51:39.872Z,10.51
2023-01-08T09:54:42.442Z,10.51
2023-01-08T09:57:45.206Z,11.23
2023-01-08T10:00:47.505Z,11.18
2023-01-08T10:04:22.686Z,11.73
2023-01-08T10:07:26.706Z,11.29
2023-01-08T10:10:31.834Z,12.16
2023-01-08T10:13:37.590Z,12.51
2023-01-08T10:16:41.266Z,12.96
2023-01-08T10:19:45.633Z,13.24
2023-01-08T10:22:49.768Z,15.17
2023-01-08T10:25:56.528Z,15.65
2023-01-08T10:29:20.197Z,13.92
2023-01-08T10:32:30.244Z,14.09
2023-01-08T10:35:42.033Z,13.58
2023-01-08T10:38:52.917Z,12.51
2023-01-08T10:42:09.732Z,12.91
2023-01-08T10:45:20.194Z,13.65
2023-01-08T10:48:25.582Z,14.25
2023-01-08T10:51:30.563Z,15.44
2023-01-08T10:54:39.321Z,15.21
2023-01-08T10:57:42.725Z,15.75
2023-01-08T11:00:45.160Z,16.20
2023-01-08T11:03:56.401Z,17.60
2023-01-08T11:07:02.573Z,18.08
2023-01-08T11:10:05.338Z,18.12
2023-01-08T11:13:14.922Z,18.59
2023-01-08T11:16:17.157Z,18.45
2023-01-08T11:19:26.839Z,19.79
2023-01-08T11:22:31.175Z,21.17
2023-01-08T11:25:35.695Z,20.53
2023-01-08T11:28:57.944Z,20.86
2023-01-08T11:32:12.487Z,21.54
2023-01-08T11:35:21.521Z,22.24
2023-01-08T11:38:23.743Z,20.94
2023-01-08T11:41:33.693Z,20.72
2023-01-08T11:44:50.190Z,20.64
2023-01-08T11:48:12.165Z,19.96
2023-01-08T11:51:40.092Z,21.39
2023-01-08T11:54:51.285Z,21.51
2023-01-08T11:57:59.358Z,21.76
2023-01-08T12:01:36.917Z,20.98
2023-01-08T12:04:57.464Z,21.34
2023-01-08T12:08:33.291Z,21.89
2023-01-08T12:11:51.129Z,22.37
2023-01-08T12:15:04.920Z,21.37
2023-01-08T12:18:42.720Z,21.79
2023-01-08T12:21:59.973Z,21.00
2023-01-08T12:25:40.414Z,20.47
2023-01-08T12:28:48.368Z,20.49
2023-01-08T12:32:10.412Z,20.87
2023-01-08T12:35:18.193Z,20.62
2023-01-08T12:38:33.463Z,20.45
2023-01-08T12:41:36.957Z,20.29
2023-01-08T12:44:40.508Z,20.11
2023-01-08T12:47:48.624Z,20.21
2023-01-08T12:51:12.041Z,20.80
2023-01-08T12:54:20.035Z,20.43
2023-01-08T12:57:48.332Z,20.67
2023-01-08T13:01:00.987Z,20.93
2023-01-08T13:04:04.879Z,20.43
2023-01-08T13:07:11.017Z,20.05
2023-01-08T13:10:28.477Z,19.85
2023-01-08T13:13:41.205Z,20.13
2023-01-08T13:16:46.261Z,20.45
2023-01-08T13:19:54.876Z,20.46
2023-01-08T13:22:59.445Z,20.50
2023-01-08T13:26:04.290Z,20.62
2023-01-08T13:29:24.980Z,19.50
2023-01-08T13:32:27.315Z,19.16
2023-01-08T13:35:31.656Z,19.26
2023-01-08T13:38:33.885Z,19.17
2023-01-08T13:41:41.155Z,19.78
2023-01-08T13:44:50.206Z,20.26
2023-01-08T13:47:52.469Z,20.15
2023-01-08T13:50:55.078Z,20.45
2023-01-08T13:54:05.006Z,19.65
2023-01-08T13:57:19.706Z,19.60
2023-01-08T14:00:25.667Z,19.63
2023-01-08T14:03:35.487Z,18.12
2023-01-08T14:06:37.960Z,17.45
2023-01-08T14:09:40.345Z,16.48
2023-01-08T14:12:42.970Z,15.76
2023-01-08T14:15:46.085Z,15.68
2023-01-08T14:18:49.558Z,15.65
2023-01-08T14:21:54.007Z,15.49
2023-01-08T14:25:00.570Z,16.03
2023-01-08T14:28:05.388Z,15.03
2023-01-08T14:31:21.270Z,14.56
2023-01-08T14:34:26.996Z,14.45
2023-01-08T14:37:29.257Z,14.28
2023-01-08T14:40:42.364Z,14.35
2023-01-08T14:43:47.293Z,14.53
2023-01-08T14:46:49.737Z,14.16
2023-01-08T14:49:53.793Z,13.82
2023-01-08T14:53:06.514Z,13.57
2023-01-08T14:56:13.720Z,13.27
2023-01-08T14:59:20.204Z,12.93
2023-01-08T15:02:28.101Z,12.68
2023-01-08T15:05:32.919Z,12.41
2023-01-08T15:08:41.384Z,12.23
2023-01-08T15:11:55.750Z,12.08
2023-01-08T15:15:12.280Z,11.93
2023-01-08T15:18:14.587Z,11.73
2023-01-08T15:21:22.435Z,11.66
2023-01-08T15:24:26.152Z,11.52
2023-01-08T15:27:31.456Z,11.43
2023-01-08T15:30:37.988Z,11.42
2023-01-08T15:33:40.254Z,11.36
2023-01-08T15:36:42.572Z,11.32
2023-01-08T15:39:44.836Z,11.25
2023-01-08T15:43:05.214Z,11.31
2023-01-08T15:46:10.777Z,11.16
2023-01-08T15:49:13.003Z,11.08
2023-01-08T15:52:19.340Z,11.02
2023-01-08T15:55:24.198Z,11.01
2023-01-08T15:58:26.444Z,10.84
2023-01-08T16:01:29.167Z,10.72
2023-01-08T16:04:31.461Z,10.60
2023-01-08T16:07:33.709Z,10.49
2023-01-08T16:10:35.929Z,10.33
2023-01-08T16:13:38.155Z,10.28
2023-01-08T16:16:40.445Z,10.17
2023-01-08T16:19:42.677Z,10.10
2023-01-08T16:22:45.150Z,10.00
2023-01-08T16:25:47.361Z,10.00
2023-01-08T16:28:49.595Z,9.88
2023-01-08T16:31:51.868Z,9.81
2023-01-08T16:34:55.089Z,9.86
2023-01-08T16:37:57.413Z,9.86
2023-01-08T16:40:59.851Z,9.86
2023-01-08T16:44:02.140Z,9.85
2023-01-08T16:47:04.604Z,9.89
2023-01-08T16:50:07.755Z,9.93
2023-01-08T16:53:10.309Z,9.95
2023-01-08T16:56:12.592Z,9.98
2023-01-08T16:59:22.629Z,9.92
2023-01-08T17:02:26.017Z,10.02
2023-01-08T17:05:28.579Z,9.99
2023-01-08T17:08:30.843Z,9.99
2023-01-08T17:11:33.104Z,9.98
2023-01-08T17:14:36.657Z,10.02
2023-01-08T17:17:38.872Z,10.12
2023-01-08T17:20:41.058Z,10.19
2023-01-08T17:23:43.363Z,10.23
2023-01-08T17:26:45.616Z,10.32
2023-01-08T17:29:47.981Z,10.36
2023-01-08T17:32:50.221Z,10.39
2023-01-08T17:35:52.444Z,10.43
2023-01-08T17:38:54.956Z,10.47
2023-01-08T17:42:16.031Z,10.57
2023-01-08T17:45:18.309Z,10.57
2023-01-08T17:48:20.507Z,10.60
2023-01-08T17:51:22.729Z,10.56
2023-01-08T17:54:25.153Z,10.53
2023-01-08T17:57:31.432Z,10.44
2023-01-08T18:00:33.653Z,10.37
2023-01-08T18:03:35.854Z,10.33
2023-01-08T18:06:38.063Z,10.29
2023-01-08T18:09:40.512Z,10.28
2023-01-08T18:12:42.762Z,10.16
2023-01-08T18:15:44.979Z,10.05
2023-01-08T18:18:47.333Z,10.06
2023-01-08T18:21:49.664Z,9.95
2023-01-08T18:24:51.874Z,9.89
2023-01-08T18:27:54.187Z,9.75
2023-01-08T18:30:56.403Z,9.68
2023-01-08T18:33:58.731Z,9.45
2023-01-08T18:37:00.922Z,9.39
2023-01-08T18:40:03.729Z,9.31
2023-01-08T18:43:05.919Z,9.18
2023-01-08T18:46:08.357Z,9.16
2023-01-08T18:49:11.135Z,9.07
2023-01-08T18:52:14.182Z,9.00
2023-01-08T18:55:16.767Z,8.84
2023-01-08T18:58:19.016Z,8.75
2023-01-08T19:01:21.658Z,8.65
2023-01-08T19:04:24.159Z,8.70
2023-01-08T19:07:27.001Z,8.66
2023-01-08T19:10:32.190Z,8.66
2023-01-08T19:13:34.702Z,8.70
2023-01-08T19:16:36.988Z,8.69
2023-01-08T19:19:39.257Z,8.72
2023-01-08T19:22:41.501Z,8.73
2023-01-08T19:25:43.737Z,8.84
2023-01-08T19:28:46.175Z,8.80
2023-01-08T19:31:48.512Z,8.76
2023-01-08T19:34:50.862Z,8.83
2023-01-08T19:37:53.058Z,8.90
2023-01-08T19:41:00.250Z,8.97
2023-01-08T19:44:03.322Z,8.97
2023-01-08T19:47:05.611Z,8.97
2023-01-08T19:50:08.484Z,8.86
2023-01-08T19:53:12.798Z,8.86
2023-01-08T19:56:16.229Z,8.84
2023-01-08T19:59:18.909Z,8.77
2023-01-08T20:02:21.391Z,8.87
2023-01-08T20:05:23.669Z,8.80
2023-01-08T20:08:25.879Z,8.72
2023-01-08T20:11:29.043Z,8.80
2023-01-08T20:14:31.698Z,8.73
2023-01-08T20:17:34.942Z,8.75
2023-01-08T20:20:37.129Z,8.89
2023-01-08T20:23:39.807Z,8.91
2023-01-08T20:26:47.000Z,8.94
2023-01-08T20:29:49.378Z,9.06
2023-01-08T20:32:51.775Z,9.03
2023-01-08T20:35:54.062Z,9.06
2023-01-08T20:38:58.941Z,9.04
2023-01-08T20:42:04.771Z,9.03
2023-01-08T20:45:08.696Z,9.03
2023-01-08T20:48:10.954Z,9.01
2023-01-08T20:51:13.144Z,9.03
2023-01-08T20:54:17.230Z,9.00
2023-01-08T20:57:19.414Z,9.00
2023-01-08T21:00:22.018Z,9.04
2023-01-08T21:03:24.284Z,8.99
2023-01-08T21:06:29.187Z,8.99
2023-01-08T21:09:31.422Z,8.97
2023-01-08T21:12:35.726Z,8.99
2023-01-08T21:15:37.966Z,8.97
2023-01-08T21:18:43.948Z,8.94
2023-01-08T21:21:46.306Z,8.93
2023-01-08T21:24:48.533Z,8.89
2023-01-08T21:27:50.738Z,8.81
2023-01-08T21:30:53.620Z,8.79
2023-01-08T21:33:57.526Z,8.75
2023-01-08T21:37:04.241Z,8.76
2023-01-08T21:40:06.914Z,8.75
2023-01-08T21:43:30.673Z,8.81
2023-01-08T21:46:32.926Z,8.76
2023-01-08T21:49:36.195Z,8.77
2023-01-08T21:52:56.998Z,8.70
2023-01-08T21:56:02.737Z,8.59
2023-01-08T21:59:04.936Z,8.50
2023-01-08T22:02:07.663Z,8.46
2023-01-08T22:05:10.358Z,8.38
2023-01-08T22:08:18.406Z,8.26
2023-01-08T22:11:20.629Z,8.24
2023-01-08T22:14:23.239Z,8.14
2023-01-08T22:17:26.774Z,8.14
2023-01-08T22:20:29.046Z,7.99
2023-01-08T22:23:31.256Z,7.93
2023-01-08T22:26:35.324Z,7.95
2023-01-08T22:29:38.050Z,7.94
2023-01-08T22:32:40.277Z,8.04
2023-01-08T22:35:42.508Z,8.11
2023-01-08T22:38:44.742Z,8.18
2023-01-08T22:41:47.157Z,8.11
2023-01-08T22:44:50.077Z,7.95
2023-01-08T22:47:52.227Z,7.97
2023-01-08T22:50:54.806Z,7.90
2023-01-08T22:53:58.757Z,7.85
2023-01-08T22:57:01.027Z,7.75
2023-01-08T23:00:06.721Z,7.67
2023-01-08T23:03:09.159Z,7.63
2023-01-08T23:06:16.527Z,7.62
2023-01-08T23:09:18.925Z,7.66
2023-01-08T23:12:21.299Z,7.57
2023-01-08T23:15:24.066Z,7.54
2023-01-08T23:18:32.955Z,7.52
2023-01-08T23:21:41.710Z,7.56
2023-01-08T23:24:43.906Z,7.64
2023-01-08T23:27:46.316Z,7.63
2023-01-08T23:30:48.538Z,7.62
2023-01-08T23:33:50.906Z,7.60
2023-01-08T23:36:53.128Z,7.50
2023-01-08T23:39:55.326Z,7.49
2023-01-08T23:42:57.547Z,7.46
2023-01-08T23:46:06.829Z,7.46
2023-01-08T23:49:10.222Z,7.46
2023-01-08T23:52:12.471Z,7.46
2023-01-08T23:55:14.822Z,7.52
2023-01-08T23:58:17.609Z,7.52
